logo
Search for airport 
image banner adimage banner adimage banner ad
image banner ad

MMHLT - Torre Lomas

Located in Miguel Hidalgo, Mexico

ICAO - , IATA -

Data provided by Airmate  

General information

Coordinates: N19°25'43" W99°12'58"
Elevation is 7372 feet MSL.
Magnetic variation is 3° East
View others Airports in Distrito Federal

Operational data

Special qualification required
Current time UTC:
Current local time:
METAR: MMMX 161943Z 07009KT 6SM SCT020TCU BKN080 24/09 A3033 NOSIG RMK 8/260 HZY CI
TAF: TAF MMMX 161651Z 1618/1718 04008KT 6SM HZ SCT020 TX24/1620Z TN14/1712Z BECMG 1620/1621 04015KT BKN020CB TEMPO 1621/1701 04015G25KT 1SM TSRA OVC010CB FM170200 04008KT 6SM -RA BKN020CB OVC080 FM170500 04005KT P6SM SCT020 BKN080 BECMG 1710/1711 3SM BR HZ SCT020
View NOTAMs / SUP AIP / TFR affecting this airport [VIEW]
Communications frequencies: [VIEW]

Runways:

Airport contact information

Address: Miguel Hidalgo Mexico

Satellite view of MMHLT